Time;durP1;ratioP1;P1;durP2;ratioP2;P2;SDS_P1;SDS_P2;PMS_P1;PMS_P2;Temp;Humidity;BMP_temperature;BMP_pressure;BME280_temperature;BME280_humidity;BME280_pressure;Samples;Min_cycle;Max_cycle;Signal;HPM_P1;HPM_P2
2021/07/25 00:00:12;;;;;;;12.90;7.68;;;;;;;14.59;100.00;95345.28;1019081;29;20043;-67
2021/07/25 00:00:44;;;;;;;13.27;6.38;;;;;;;14.59;100.00;95345.28;1022429;28;20039;-68
2021/07/25 00:01:14;;;;;;;15.93;7.30;;;;;;;14.60;100.00;95349.47;1023321;28;20595;-68
2021/07/25 00:01:45;;;;;;;10.02;7.30;;;;;;;14.60;100.00;95349.47;1029595;28;20030;-68
2021/07/25 00:02:15;;;;;;;12.82;7.93;;;;;;;14.58;100.00;95352.41;1025766;28;20046;-69
2021/07/25 00:02:46;;;;;;;14.15;8.00;;;;;;;14.57;100.00;95347.44;1022521;28;20023;-68
2021/07/25 00:03:16;;;;;;;15.45;7.93;;;;;;;14.63;100.00;95356.03;1018903;29;20111;-68
2021/07/25 00:03:47;;;;;;;10.63;7.15;;;;;;;14.63;100.00;95346.25;1018998;29;20034;-68
2021/07/25 00:04:17;;;;;;;16.05;7.18;;;;;;;14.64;100.00;95355.72;1022425;28;20046;-68
2021/07/25 00:04:47;;;;;;;15.13;7.07;;;;;;;14.64;100.00;95345.16;1027120;28;20023;-68
2021/07/25 00:05:18;;;;;;;13.85;6.68;;;;;;;14.65;100.00;95349.34;1035373;28;20105;-68
2021/07/25 00:05:48;;;;;;;18.95;7.45;;;;;;;14.51;100.00;95327.47;1035039;28;20077;-67
2021/07/25 00:06:19;;;;;;;24.40;7.63;;;;;;;14.65;100.00;95349.34;1031053;28;20030;-68
2021/07/25 00:06:49;;;;;;;16.10;7.57;;;;;;;14.66;100.00;95355.44;1026893;28;20082;-68
2021/07/25 00:07:20;;;;;;;13.75;7.05;;;;;;;14.60;100.00;95344.19;1022946;29;20520;-69
2021/07/25 00:07:50;;;;;;;12.88;6.97;;;;;;;14.66;100.00;95345.66;1018722;29;20617;-69
2021/07/25 00:08:21;;;;;;;16.40;7.05;;;;;;;14.68;100.00;95348.75;1018934;29;20039;-69
2021/07/25 00:08:51;;;;;;;14.48;7.63;;;;;;;14.70;100.00;95351.13;1022894;29;20026;-68
2021/07/25 00:09:21;;;;;;;19.73;7.78;;;;;;;14.68;100.00;95348.75;1026767;28;20019;-68
2021/07/25 00:09:52;;;;;;;13.57;7.10;;;;;;;14.69;100.00;95352.19;1031013;28;20019;-68
2021/07/25 00:10:22;;;;;;;18.13;7.43;;;;;;;14.69;100.00;95350.34;1030890;28;20018;-68
2021/07/25 00:10:53;;;;;;;15.48;6.85;;;;;;;14.68;100.00;95355.91;1030866;28;20022;-68
2021/07/25 00:11:23;;;;;;;19.25;7.72;;;;;;;14.69;100.00;95355.63;1030559;28;20018;-68
2021/07/25 00:11:54;;;;;;;15.13;7.63;;;;;;;14.69;100.00;95352.97;1026275;28;20544;-67
2021/07/25 00:12:24;;;;;;;12.65;6.72;;;;;;;14.65;100.00;95354.63;1030945;28;20699;-68
2021/07/25 00:12:57;;;;;;;11.77;6.78;;;;;;;14.65;100.00;95356.50;1030472;28;20033;-69
2021/07/25 00:13:28;;;;;;;12.98;7.43;;;;;;;14.64;100.00;95358.34;1027395;28;20023;-68
2021/07/25 00:14:02;;;;;;;15.00;7.00;;;;;;;14.64;100.00;95354.94;1030797;28;20023;-68
2021/07/25 00:14:33;;;;;;;15.38;7.78;;;;;;;14.64;100.00;95358.34;1026878;28;20026;-69
2021/07/25 00:15:04;;;;;;;11.50;7.20;;;;;;;14.63;100.00;95356.03;1027418;28;20033;-68
2021/07/25 00:15:35;;;;;;;19.52;7.38;;;;;;;14.65;100.00;95370.47;1026877;28;20027;-68
2021/07/25 00:16:06;;;;;;;17.33;7.65;;;;;;;14.69;100.00;95365.38;1027376;28;20062;-68
2021/07/25 00:16:36;;;;;;;13.10;7.90;;;;;;;14.63;100.00;95362.09;1030942;28;20030;-67
2021/07/25 00:17:07;;;;;;;16.77;7.72;;;;;;;14.70;100.00;95366.97;1030820;28;20030;-69
2021/07/25 00:17:37;;;;;;;14.27;8.18;;;;;;;14.72;100.00;95368.22;1030337;28;20714;-68
2021/07/25 00:18:08;;;;;;;15.90;7.45;;;;;;;14.71;100.00;95374.56;1030848;28;20027;-69
2021/07/25 00:18:38;;;;;;;17.05;7.22;;;;;;;14.73;100.00;95377.72;1030963;28;20033;-69
2021/07/25 00:19:12;;;;;;;15.00;7.85;;;;;;;14.70;100.00;95372.25;1030651;28;20476;-68
2021/07/25 00:19:42;;;;;;;15.27;7.25;;;;;;;14.67;100.00;95368.31;1030873;28;20037;-69
2021/07/25 00:20:13;;;;;;;13.50;7.57;;;;;;;14.71;100.00;95373.78;1022803;29;20030;-67
2021/07/25 00:20:43;;;;;;;15.50;7.47;;;;;;;14.75;100.00;95382.69;1022358;29;20401;-67
2021/07/25 00:21:14;;;;;;;13.48;7.35;;;;;;;14.74;100.00;95383.78;1015720;29;20028;-68
2021/07/25 00:21:45;;;;;;;19.45;7.95;;;;;;;14.61;100.00;95358.94;1018533;29;20506;-68
2021/07/25 00:22:15;;;;;;;14.27;7.95;;;;;;;14.77;100.00;95383.94;1019005;29;20035;-70
2021/07/25 00:22:46;;;;;;;13.68;8.00;;;;;;;14.77;100.00;95378.66;1022657;28;20019;-68
2021/07/25 00:23:18;;;;;;;15.82;7.85;;;;;;;14.80;100.00;95383.38;1026736;28;20074;-67
2021/07/25 00:23:53;;;;;;;10.85;7.13;;;;;;;14.76;100.00;95371.84;1026761;28;20031;-69
2021/07/25 00:24:30;;;;;;;13.50;7.18;;;;;;;14.80;100.00;95375.44;1031437;28;20034;-68
2021/07/25 00:25:19;;;;;;;12.00;6.70;;;;;;;14.78;100.00;95372.31;1030953;28;20022;-68
2021/07/25 00:25:51;;;;;;;17.05;7.80;;;;;;;14.81;100.00;95371.72;1018852;29;20082;-68
2021/07/25 00:26:25;;;;;;;18.60;6.72;;;;;;;14.83;100.00;95363.50;1010877;29;20029;-68
2021/07/25 00:26:58;;;;;;;16.58;7.32;;;;;;;14.84;100.00;95373.75;1011010;29;20031;-68
2021/07/25 00:27:29;;;;;;;10.73;6.90;;;;;;;14.84;100.00;95368.47;1015519;29;20112;-68
2021/07/25 00:28:05;;;;;;;13.05;6.90;;;;;;;14.83;100.00;95366.91;1020258;28;20027;-68
2021/07/25 00:28:38;;;;;;;19.58;8.18;;;;;;;14.84;100.00;95372.97;1023835;28;20075;-68
2021/07/25 00:29:09;;;;;;;13.13;6.35;;;;;;;14.85;100.00;95366.59;1022951;29;20749;-69
2021/07/25 00:29:39;;;;;;;11.30;6.82;;;;;;;14.76;100.00;95356.00;1021943;28;20043;-69
2021/07/25 00:30:10;;;;;;;13.63;6.50;;;;;;;14.85;100.00;95369.25;1020723;28;20019;-68
2021/07/25 00:30:41;;;;;;;21.70;6.40;;;;;;;14.83;100.00;95361.63;1022952;28;20102;-68
2021/07/25 00:31:11;;;;;;;17.45;6.65;;;;;;;14.82;100.00;95362.72;1026882;28;20034;-68
2021/07/25 00:31:42;;;;;;;12.07;6.53;;;;;;;14.82;100.00;95362.72;1022122;29;20080;-67
2021/07/25 00:32:12;;;;;;;13.90;6.50;;;;;;;14.80;100.00;95356.94;1018667;29;20066;-68
2021/07/25 00:32:43;;;;;;;11.25;6.28;;;;;;;14.79;100.00;95362.53;1015132;29;20032;-69
2021/07/25 00:33:13;;;;;;;29.23;7.22;;;;;;;14.75;100.00;95349.13;1017957;29;20075;-68
2021/07/25 00:33:44;;;;;;;28.40;7.20;;;;;;;14.79;100.00;95360.69;1020197;29;20054;-69
2021/07/25 00:34:14;;;;;;;12.63;7.47;;;;;;;14.80;100.00;95354.31;1018703;29;20031;-68
2021/07/25 00:34:44;;;;;;;12.10;6.97;;;;;;;14.82;100.00;95354.81;1024708;28;20019;-68
2021/07/25 00:35:17;;;;;;;13.93;6.32;;;;;;;14.81;100.00;95358.50;1026508;28;20792;-68
2021/07/25 00:35:48;;;;;;;10.77;6.80;;;;;;;14.78;100.00;95348.53;1030531;28;20045;-68
2021/07/25 00:36:18;;;;;;;14.30;7.13;;;;;;;14.84;100.00;95357.13;1030731;28;20082;-68
2021/07/25 00:36:49;;;;;;;14.02;6.50;;;;;;;14.82;100.00;95349.50;1031884;28;20373;-68
2021/07/25 00:37:20;;;;;;;13.00;7.00;;;;;;;14.82;100.00;95352.16;1027025;28;20035;-69
2021/07/25 00:37:52;;;;;;;11.57;6.90;;;;;;;14.81;100.00;95347.16;1022688;29;20031;-68
2021/07/25 00:38:22;;;;;;;12.90;7.13;;;;;;;14.77;100.00;95340.91;1022577;29;20094;-69
2021/07/25 00:38:53;;;;;;;13.25;7.75;;;;;;;14.80;100.00;95342.97;1022764;28;20461;-67
2021/07/25 00:39:23;;;;;;;14.93;7.03;;;;;;;14.79;100.00;95346.69;1026944;28;20049;-68
2021/07/25 00:39:54;;;;;;;10.13;6.70;;;;;;;14.79;100.00;95334.25;1026993;28;20034;-69
2021/07/25 00:40:38;;;;;;;16.63;6.40;;;;;;;14.74;100.00;95337.00;1029383;28;20121;-68
2021/07/25 00:41:12;;;;;;;15.32;6.15;;;;;;;14.73;100.00;95339.97;1019406;29;20020;-68
2021/07/25 00:41:43;;;;;;;14.10;7.15;;;;;;;14.74;100.00;95338.88;1019471;28;20534;-68
2021/07/25 00:42:13;;;;;;;12.40;6.57;;;;;;;14.72;100.00;95344.47;1020354;29;20024;-68
2021/07/25 00:42:44;;;;;;;16.85;7.28;;;;;;;14.71;100.00;95334.97;1019644;29;20020;-68
2021/07/25 00:43:27;;;;;;;21.00;6.50;;;;;;;14.72;100.00;95344.47;1022995;28;20098;-68
2021/07/25 00:43:59;;;;;;;13.25;7.22;;;;;;;14.71;100.00;95334.97;1029006;28;20109;-68
2021/07/25 00:44:29;;;;;;;14.02;6.45;;;;;;;14.63;100.00;95325.13;1032624;28;20089;-66
2021/07/25 00:45:00;;;;;;;12.45;6.78;;;;;;;14.69;100.00;95329.22;1028897;28;20092;-68
2021/07/25 00:45:30;;;;;;;14.10;6.75;;;;;;;14.62;100.00;95323.56;1029926;28;20045;-68
2021/07/25 00:46:01;;;;;;;10.90;6.53;;;;;;;14.71;100.00;95331.53;1018947;29;20047;-70
2021/07/25 00:46:31;;;;;;;13.85;6.82;;;;;;;14.70;100.00;95328.13;1018934;28;20106;-68
2021/07/25 00:47:02;;;;;;;11.48;6.32;;;;;;;14.65;100.00;95320.31;1030980;28;20026;-68
2021/07/25 00:47:33;;;;;;;11.55;6.75;;;;;;;14.68;100.00;95330.28;1022745;28;20117;-69
2021/07/25 00:48:03;;;;;;;11.77;6.75;;;;;;;14.68;100.00;95332.13;1026874;28;20031;-69
2021/07/25 00:48:34;;;;;;;17.70;7.10;;;;;;;14.69;100.00;95328.41;1026657;28;20041;-69
2021/07/25 00:49:05;;;;;;;9.38;6.63;;;;;;;14.68;100.00;95327.63;1022523;29;20433;-69
2021/07/25 00:49:35;;;;;;;10.88;6.78;;;;;;;14.70;100.00;95325.47;1022898;28;20023;-69
2021/07/25 00:50:07;;;;;;;14.57;6.45;;;;;;;14.71;100.00;95336.81;1026853;28;20133;-68
2021/07/25 00:50:37;;;;;;;15.88;6.25;;;;;;;14.73;100.00;95335.44;1026194;28;20035;-69
2021/07/25 00:51:08;;;;;;;11.95;6.63;;;;;;;14.74;100.00;95344.94;1023016;29;20027;-69
2021/07/25 00:51:39;;;;;;;13.05;6.32;;;;;;;14.73;100.00;95340.72;1022991;28;20110;-69
2021/07/25 00:52:09;;;;;;;15.85;6.93;;;;;;;14.73;100.00;95346.03;1026614;28;20022;-70
2021/07/25 00:52:42;;;;;;;14.38;5.50;;;;;;;14.72;100.00;95343.66;1022619;28;20038;-69
2021/07/25 00:53:13;;;;;;;12.00;6.38;;;;;;;14.73;100.00;95345.25;1018837;29;20346;-68
2021/07/25 00:53:43;;;;;;;12.48;6.65;;;;;;;14.75;100.00;95345.69;1020603;29;20031;-69
2021/07/25 00:54:14;;;;;;;12.73;6.38;;;;;;;14.76;100.00;95340.13;1022846;28;20031;-68
2021/07/25 00:54:44;;;;;;;14.13;6.22;;;;;;;14.76;100.00;95340.13;1027195;28;20046;-69
2021/07/25 00:55:15;;;;;;;13.05;6.13;;;;;;;14.70;100.00;95330.75;1027324;28;20423;-69
2021/07/25 00:55:46;;;;;;;15.60;6.22;;;;;;;14.77;100.00;95336.41;1030628;28;20031;-68
2021/07/25 00:56:16;;;;;;;13.77;6.43;;;;;;;14.75;100.00;95330.63;1027058;28;20151;-69
2021/07/25 00:56:46;;;;;;;12.65;6.68;;;;;;;14.79;100.00;95339.53;1022809;29;20600;-69
2021/07/25 00:57:17;;;;;;;16.80;6.60;;;;;;;14.81;100.00;95331.31;1019102;28;20024;-71
2021/07/25 00:57:48;;;;;;;11.32;6.72;;;;;;;14.80;100.00;95333.19;1026884;28;20038;-69
2021/07/25 00:58:19;;;;;;;16.15;6.45;;;;;;;14.73;100.00;95324.13;1031160;28;20034;-69
2021/07/25 00:58:49;;;;;;;14.18;6.20;;;;;;;14.80;100.00;95327.88;1030786;28;20626;-69
2021/07/25 00:59:19;;;;;;;14.98;5.43;;;;;;;14.81;100.00;95332.09;1026562;28;20042;-69
2021/07/25 00:59:50;;;;;;;10.65;6.05;;;;;;;14.84;100.00;95331.50;1025844;28;20027;-69
2021/07/25 01:00:20;;;;;;;17.05;6.40;;;;;;;14.83;100.00;95335.22;1022800;28;20445;-69
2021/07/25 01:00:51;;;;;;;16.65;7.47;;;;;;;14.85;100.00;95332.25;1027398;28;20449;-68
2021/07/25 01:01:22;;;;;;;18.10;7.15;;;;;;;14.87;100.00;95334.63;1034874;28;20084;-67
2021/07/25 01:01:52;;;;;;;14.07;6.95;;;;;;;14.82;100.00;95327.59;1031239;28;20030;-67
2021/07/25 01:02:26;;;;;;;10.32;6.20;;;;;;;14.86;100.00;95336.50;1026748;28;20404;-69
2021/07/25 01:03:21;;;;;;;10.18;6.15;;;;;;;14.83;100.00;95345.78;1022044;29;20057;-69
2021/07/25 01:04:13;;;;;;;14.48;6.60;;;;;;;14.89;100.00;95338.53;1018717;29;20050;-69
2021/07/25 01:04:56;;;;;;;10.77;6.32;;;;;;;14.84;100.00;95341.28;1020952;29;20111;-69
2021/07/25 01:05:40;;;;;;;16.55;6.13;;;;;;;14.84;100.00;95349.22;1027229;28;20093;-69
2021/07/25 01:06:10;;;;;;;20.98;5.90;;;;;;;14.87;100.00;95345.19;1026205;28;20511;-69
2021/07/25 01:06:58;;;;;;;11.68;5.75;;;;;;;14.88;100.00;95346.75;1022857;29;20062;-68
2021/07/25 01:07:34;;;;;;;18.23;6.63;;;;;;;14.88;100.00;95344.09;1020273;29;20058;-68
2021/07/25 01:08:11;;;;;;;11.88;5.57;;;;;;;14.88;100.00;95341.47;1021826;28;20087;-68
2021/07/25 01:09:02;;;;;;;7.85;5.20;;;;;;;14.89;100.00;95338.53;1022065;28;20035;-69
2021/07/25 01:09:50;;;;;;;12.63;6.07;;;;;;;14.89;100.00;95332.44;1019026;28;20028;-69
2021/07/25 01:10:25;;;;;;;15.05;5.78;;;;;;;14.80;100.00;95319.97;1021809;29;20026;-69
2021/07/25 01:10:56;;;;;;;8.68;5.00;;;;;;;14.87;100.00;95329.34;1026639;28;20095;-69
2021/07/25 01:11:35;;;;;;;12.75;5.72;;;;;;;14.81;100.00;95316.25;1025556;28;20043;-69
2021/07/25 01:12:06;;;;;;;22.42;6.32;;;;;;;14.83;100.00;95329.16;1017747;29;20027;-69
2021/07/25 01:12:37;;;;;;;10.90;5.50;;;;;;;14.89;100.00;95329.81;1022642;29;20023;-68
2021/07/25 01:13:18;;;;;;;12.68;6.25;;;;;;;14.87;100.00;95330.13;1024211;28;20492;-69
2021/07/25 01:13:51;;;;;;;14.50;6.88;;;;;;;14.81;100.00;95310.94;1029170;28;20041;-70
2021/07/25 01:14:26;;;;;;;13.38;6.32;;;;;;;14.89;100.00;95321.88;1024325;28;20105;-68
2021/07/25 01:14:56;;;;;;;13.77;6.30;;;;;;;14.82;100.00;95317.81;1018784;29;20028;-68
2021/07/25 01:15:27;;;;;;;14.90;6.38;;;;;;;14.80;100.00;95314.69;1018803;29;20028;-68
2021/07/25 01:15:58;;;;;;;13.48;6.07;;;;;;;14.81;100.00;95313.59;1018403;29;20032;-69
2021/07/25 01:16:29;;;;;;;13.85;6.07;;;;;;;14.86;100.00;95323.28;1022477;28;20199;-68
2021/07/25 01:17:30;;;;;;;17.60;6.75;;;;;;;14.87;100.00;95324.84;1022942;29;20485;-68
2021/07/25 01:18:00;;;;;;;12.73;6.15;;;;;;;14.88;100.00;95321.09;1026610;28;20035;-69
2021/07/25 01:18:31;;;;;;;11.68;6.38;;;;;;;14.88;100.00;95322.97;1017301;29;20104;-69
2021/07/25 01:19:01;;;;;;;22.83;7.20;;;;;;;14.83;100.00;95314.09;1014813;29;20065;-68
2021/07/25 01:19:32;;;;;;;20.23;6.47;;;;;;;14.90;100.00;95320.81;1014830;29;20104;-69
2021/07/25 01:20:06;;;;;;;13.27;7.50;;;;;;;14.90;100.00;95323.47;1019486;29;20035;-68
2021/07/25 01:20:37;;;;;;;13.85;7.20;;;;;;;14.89;100.00;95324.53;1022406;29;20077;-69
2021/07/25 01:21:07;;;;;;;15.82;6.55;;;;;;;14.88;100.00;95325.63;1023450;28;20501;-68
2021/07/25 01:21:38;;;;;;;13.55;7.00;;;;;;;14.88;100.00;95325.63;1027492;28;20774;-68
2021/07/25 01:22:08;;;;;;;13.70;7.22;;;;;;;14.89;100.00;95327.16;1034004;28;20515;-69
2021/07/25 01:22:42;;;;;;;16.00;7.70;;;;;;;14.82;100.00;95309.09;1034810;28;20041;-68
2021/07/25 01:23:12;;;;;;;18.25;7.50;;;;;;;14.88;100.00;95330.91;1030640;28;20093;-67
2021/07/25 01:23:43;;;;;;;20.60;7.22;;;;;;;14.84;100.00;95320.94;1026452;28;20139;-68
2021/07/25 01:24:13;;;;;;;13.30;6.22;;;;;;;14.86;100.00;95333.84;1018464;29;20028;-67
2021/07/25 01:24:43;;;;;;;16.25;7.68;;;;;;;14.85;100.00;95335.72;1018853;29;20076;-67
2021/07/25 01:25:15;;;;;;;17.13;7.85;;;;;;;14.79;100.00;95325.56;1022431;28;20055;-67
2021/07/25 01:25:45;;;;;;;13.57;6.95;;;;;;;14.87;100.00;95345.19;1014968;29;20035;-66
2021/07/25 01:26:22;;;;;;;15.05;8.20;;;;;;;14.85;100.00;95348.94;1022492;29;20057;-66
2021/07/25 01:26:52;;;;;;;17.40;7.53;;;;;;;14.69;100.00;95333.69;1020762;29;20712;-67
2021/07/25 01:27:29;;;;;;;17.52;7.13;;;;;;;14.82;100.00;95344.22;1011037;29;20028;-68
2021/07/25 01:28:04;;;;;;;14.65;7.43;;;;;;;14.86;100.00;95354.97;1014739;29;20385;-67
2021/07/25 01:28:34;;;;;;;15.77;8.05;;;;;;;14.87;100.00;95345.97;1019790;28;20549;-67
2021/07/25 01:29:05;;;;;;;14.00;8.43;;;;;;;14.90;100.00;95355.16;1024095;28;20101;-67
2021/07/25 01:29:35;;;;;;;13.48;6.85;;;;;;;14.90;100.00;95347.25;1023830;28;20614;-67
2021/07/25 01:30:08;;;;;;;13.38;7.00;;;;;;;14.88;100.00;95350.16;1022158;29;20031;-65
2021/07/25 01:30:42;;;;;;;13.15;6.65;;;;;;;14.87;100.00;95355.75;1023347;28;20039;-67
2021/07/25 01:31:15;;;;;;;12.70;6.43;;;;;;;14.81;100.00;95349.81;1019685;29;20528;-68
2021/07/25 01:31:46;;;;;;;14.50;6.85;;;;;;;14.76;100.00;95345.41;1019587;29;20465;-66
2021/07/25 01:32:17;;;;;;;13.98;7.13;;;;;;;14.83;100.00;95356.34;1025818;28;20086;-67
2021/07/25 01:32:51;;;;;;;11.68;6.45;;;;;;;14.81;100.00;95355.09;1022872;28;20031;-69
2021/07/25 01:33:27;;;;;;;14.50;6.50;;;;;;;14.81;100.00;95363.78;1014972;29;20080;-67
2021/07/25 01:33:58;;;;;;;20.10;7.35;;;;;;;14.78;100.00;95364.38;1019554;29;20445;-66
2021/07/25 01:34:29;;;;;;;16.58;7.97;;;;;;;14.75;100.00;95357.03;1016155;29;20080;-68
2021/07/25 01:34:59;;;;;;;15.55;7.07;;;;;;;14.77;100.00;95367.31;1019725;29;20039;-66
2021/07/25 01:35:30;;;;;;;16.42;7.50;;;;;;;14.72;100.00;95360.31;1018429;29;20028;-66
2021/07/25 01:36:01;;;;;;;14.70;7.45;;;;;;;14.76;100.00;95366.56;1018757;29;20027;-67
2021/07/25 01:36:31;;;;;;;18.77;7.88;;;;;;;14.71;100.00;95353.44;1018652;29;20482;-66
2021/07/25 01:37:02;;;;;;;17.45;7.53;;;;;;;14.75;100.00;95359.69;1018574;29;20035;-68
2021/07/25 01:37:32;;;;;;;15.30;8.25;;;;;;;14.76;100.00;95353.34;1019015;28;20028;-68
2021/07/25 01:38:03;;;;;;;18.05;8.05;;;;;;;14.76;100.00;95355.22;1018876;29;20062;-68
2021/07/25 01:38:33;;;;;;;13.82;7.90;;;;;;;14.77;100.00;95356.75;1018777;28;20035;-67
2021/07/25 01:39:04;;;;;;;16.77;7.70;;;;;;;14.71;100.00;95348.16;1022139;29;20039;-66
2021/07/25 01:39:34;;;;;;;15.55;7.57;;;;;;;14.75;100.00;95362.34;1022811;28;20020;-67
2021/07/25 01:40:15;;;;;;;18.40;7.80;;;;;;;14.75;100.00;95357.03;1026745;28;20031;-64
2021/07/25 01:41:05;;;;;;;18.73;8.35;;;;;;;14.77;100.00;95364.69;1026015;28;20099;-67
2021/07/25 01:41:42;;;;;;;16.70;7.82;;;;;;;14.76;100.00;95369.19;1022806;29;20517;-67
2021/07/25 01:42:12;;;;;;;23.17;8.98;;;;;;;14.70;100.00;95362.47;1018237;29;20031;-67
2021/07/25 01:42:43;;;;;;;17.05;9.27;;;;;;;14.75;100.00;95377.41;1025604;28;20027;-67
2021/07/25 01:43:14;;;;;;;21.73;9.55;;;;;;;14.74;100.00;95373.97;1027243;28;20030;-64
2021/07/25 01:43:47;;;;;;;17.67;9.10;;;;;;;14.65;100.00;95375.75;1024563;28;20449;-65
2021/07/25 01:44:17;;;;;;;22.52;10.25;;;;;;;14.69;100.00;95389.94;1019951;29;20121;-68
2021/07/25 01:44:50;;;;;;;18.58;9.63;;;;;;;14.65;100.00;95381.03;1022652;28;20038;-67
2021/07/25 01:45:21;;;;;;;19.00;9.38;;;;;;;14.69;100.00;95389.16;1023388;28;20046;-67
2021/07/25 01:45:52;;;;;;;17.55;9.32;;;;;;;14.69;100.00;95392.59;1018635;29;20034;-67
2021/07/25 01:46:22;;;;;;;22.08;10.73;;;;;;;14.71;100.00;95395.69;1022655;29;20050;-68
2021/07/25 01:46:52;;;;;;;20.75;10.23;;;;;;;14.66;100.00;95387.91;1022887;28;20031;-67
2021/07/25 01:47:23;;;;;;;23.77;10.95;;;;;;;14.63;100.00;95387.72;1022585;28;20031;-67
2021/07/25 01:47:53;;;;;;;21.55;9.35;;;;;;;14.73;100.00;95398.84;1026502;28;20444;-67
2021/07/25 01:48:24;;;;;;;26.13;10.15;;;;;;;14.72;100.00;95392.00;1026567;28;20030;-67
2021/07/25 01:48:54;;;;;;;24.45;10.45;;;;;;;14.72;100.00;95392.00;1026121;28;20071;-67
2021/07/25 01:49:25;;;;;;;26.65;10.07;;;;;;;14.71;100.00;95385.13;1030634;28;20033;-67
2021/07/25 01:49:55;;;;;;;20.58;10.32;;;;;;;14.74;100.00;95389.06;1030503;28;20081;-68
2021/07/25 01:50:26;;;;;;;23.65;10.57;;;;;;;14.74;100.00;95379.25;1030528;28;20019;-69
2021/07/25 01:50:56;;;;;;;19.25;9.90;;;;;;;14.70;100.00;95380.16;1029606;28;20027;-67
2021/07/25 01:51:27;;;;;;;24.52;10.15;;;;;;;14.69;100.00;95384.66;1026617;28;20027;-68
2021/07/25 01:51:57;;;;;;;21.35;9.55;;;;;;;14.75;100.00;95385.31;1024966;28;20049;-67
2021/07/25 01:52:27;;;;;;;21.63;10.45;;;;;;;14.71;100.00;95379.84;1026163;28;20661;-67
2021/07/25 01:52:58;;;;;;;29.02;11.02;;;;;;;14.74;100.00;95375.84;1026341;28;20015;-68
2021/07/25 01:53:28;;;;;;;22.33;10.52;;;;;;;14.75;100.00;95370.25;1030448;28;20074;-67
2021/07/25 01:53:59;;;;;;;30.15;10.80;;;;;;;14.76;100.00;95376.34;1030508;28;20563;-66
2021/07/25 01:54:29;;;;;;;25.73;10.48;;;;;;;14.67;100.00;95365.69;1030678;28;20751;-68
2021/07/25 01:55:00;;;;;;;24.63;10.85;;;;;;;14.73;100.00;95371.66;1030765;28;20026;-66
2021/07/25 01:55:30;;;;;;;27.73;11.65;;;;;;;14.71;100.00;95369.28;1030534;28;20105;-68
2021/07/25 01:56:00;;;;;;;28.65;10.68;;;;;;;14.72;100.00;95370.06;1030486;28;20034;-67
2021/07/25 01:56:31;;;;;;;31.85;11.25;;;;;;;14.74;100.00;95368.69;1022600;29;20047;-67
2021/07/25 01:57:04;;;;;;;26.13;10.63;;;;;;;14.72;100.00;95370.88;1018666;29;20079;-67
2021/07/25 01:57:34;;;;;;;27.67;10.88;;;;;;;14.70;100.00;95366.97;1022159;29;20030;-68
2021/07/25 01:58:05;;;;;;;24.63;10.88;;;;;;;14.71;100.00;95366.66;1019577;28;20012;-67
2021/07/25 01:58:35;;;;;;;24.08;11.05;;;;;;;14.73;100.00;95372.44;1026839;28;20059;-67
2021/07/25 01:59:06;;;;;;;25.83;10.98;;;;;;;14.74;100.00;95358.13;1025732;28;20042;-67
2021/07/25 01:59:36;;;;;;;27.13;10.15;;;;;;;14.72;100.00;95360.31;1026414;28;20031;-68
2021/07/25 02:00:07;;;;;;;22.98;11.13;;;;;;;14.72;100.00;95362.16;1030554;28;20030;-68
2021/07/25 02:00:38;;;;;;;22.10;10.13;;;;;;;14.70;100.00;95362.47;1026974;28;20023;-68
2021/07/25 02:01:09;;;;;;;22.00;9.52;;;;;;;14.71;100.00;95356.09;1025327;28;20026;-67
2021/07/25 02:01:40;;;;;;;20.80;9.88;;;;;;;14.72;100.00;95360.31;1026544;28;20531;-67
2021/07/25 02:02:10;;;;;;;21.17;10.70;;;;;;;14.71;100.00;95353.44;1029648;28;20019;-66
2021/07/25 02:02:43;;;;;;;24.75;10.27;;;;;;;14.70;100.00;95354.53;1025345;28;20027;-67
2021/07/25 02:03:20;;;;;;;20.80;9.50;;;;;;;14.72;100.00;95352.38;1027101;28;20073;-67
2021/07/25 02:03:51;;;;;;;28.58;9.90;;;;;;;14.66;100.00;95348.28;1028643;28;20030;-67
2021/07/25 02:04:21;;;;;;;15.32;9.95;;;;;;;14.64;100.00;95353.06;1030803;28;20030;-67
2021/07/25 02:04:52;;;;;;;15.43;9.25;;;;;;;14.68;100.00;95354.03;1027375;28;20015;-68
2021/07/25 02:05:22;;;;;;;15.48;8.98;;;;;;;14.72;100.00;95365.59;1013848;29;20028;-69
2021/07/25 02:05:53;;;;;;;19.00;9.35;;;;;;;14.64;100.00;95347.78;1014664;29;20027;-67
2021/07/25 02:06:23;;;;;;;23.27;10.55;;;;;;;14.73;100.00;95371.66;1015547;29;20043;-68
2021/07/25 02:06:53;;;;;;;20.48;9.70;;;;;;;14.72;100.00;95365.59;1019343;28;20497;-67
2021/07/25 02:07:24;;;;;;;22.33;9.63;;;;;;;14.72;100.00;95370.06;1031337;28;20026;-67
2021/07/25 02:07:54;;;;;;;18.85;9.68;;;;;;;14.74;100.00;95370.56;1027901;28;20030;-68
2021/07/25 02:08:25;;;;;;;20.63;10.55;;;;;;;14.75;100.00;95370.25;1027186;28;20091;-69
2021/07/25 02:08:55;;;;;;;20.33;9.98;;;;;;;14.74;100.00;95373.97;1023317;29;20027;-66
2021/07/25 02:09:26;;;;;;;20.10;9.48;;;;;;;14.69;100.00;95365.38;1022757;28;20023;-68
2021/07/25 02:09:56;;;;;;;20.83;9.52;;;;;;;14.76;100.00;95377.13;1023148;28;20091;-68
2021/07/25 02:10:27;;;;;;;22.50;8.18;;;;;;;14.76;100.00;95377.13;1027353;28;20552;-67
2021/07/25 02:11:00;;;;;;;21.25;8.80;;;;;;;14.76;100.00;95377.13;1027209;28;20077;-67
2021/07/25 02:11:30;;;;;;;15.93;8.50;;;;;;;14.74;100.00;95373.97;1023565;28;20031;-67
2021/07/25 02:12:04;;;;;;;15.85;8.95;;;;;;;14.76;100.00;95377.13;1023011;28;20683;-68
2021/07/25 02:12:35;;;;;;;17.98;9.93;;;;;;;14.77;100.00;95369.97;1023240;29;20016;-68
2021/07/25 02:13:06;;;;;;;19.38;9.10;;;;;;;14.75;100.00;95375.53;1023326;28;20074;-67
2021/07/25 02:13:36;;;;;;;16.05;9.40;;;;;;;14.75;100.00;95370.25;1019917;29;20042;-67
2021/07/25 02:14:08;;;;;;;13.65;8.00;;;;;;;14.72;100.00;95365.59;1021399;29;20130;-67
2021/07/25 02:14:39;;;;;;;15.38;8.35;;;;;;;14.70;100.00;95365.09;1027479;28;20099;-68
2021/07/25 02:15:11;;;;;;;19.75;9.07;;;;;;;14.73;100.00;95372.44;1022996;29;20154;-67
2021/07/25 02:15:41;;;;;;;19.92;9.65;;;;;;;14.73;100.00;95369.78;1015709;29;20499;-67
2021/07/25 02:16:12;;;;;;;18.70;9.70;;;;;;;14.74;100.00;95373.19;1021977;29;20031;-68
2021/07/25 02:16:42;;;;;;;21.55;9.10;;;;;;;14.73;100.00;95364.50;1023177;29;20079;-68
2021/07/25 02:17:12;;;;;;;17.92;8.93;;;;;;;14.74;100.00;95373.19;1015451;29;20028;-68
2021/07/25 02:17:43;;;;;;;15.38;8.85;;;;;;;14.75;100.00;95369.47;1015403;29;20028;-67
2021/07/25 02:18:13;;;;;;;15.90;10.43;;;;;;;14.75;100.00;95369.47;1025338;28;20886;-67
2021/07/25 02:18:44;;;;;;;20.70;9.43;;;;;;;14.75;100.00;95364.19;1027434;28;20477;-68
2021/07/25 02:19:14;;;;;;;17.13;9.00;;;;;;;14.70;100.00;95359.03;1031004;28;20452;-68
2021/07/25 02:19:45;;;;;;;15.38;8.30;;;;;;;14.73;100.00;95372.44;1022540;28;20540;-68
2021/07/25 02:20:15;;;;;;;16.23;8.82;;;;;;;14.75;100.00;95372.91;1022933;29;20027;-68
2021/07/25 02:20:47;;;;;;;15.15;9.02;;;;;;;14.72;100.00;95373.50;1019412;29;20024;-68
2021/07/25 02:21:18;;;;;;;17.58;9.10;;;;;;;14.71;100.00;95374.56;1019840;28;20051;-69
2021/07/25 02:21:48;;;;;;;14.82;8.63;;;;;;;14.72;100.00;95368.22;1026328;28;20036;-68
2021/07/25 02:22:19;;;;;;;14.95;7.75;;;;;;;14.73;100.00;95379.56;1026728;28;20015;-68
2021/07/25 02:22:49;;;;;;;18.45;9.23;;;;;;;14.72;100.00;95376.16;1027236;28;20031;-68
2021/07/25 02:23:19;;;;;;;16.60;9.07;;;;;;;14.71;100.00;95369.28;1024076;28;20035;-67
2021/07/25 02:23:50;;;;;;;25.13;9.20;;;;;;;14.71;100.00;95368.50;1023098;29;20860;-68
2021/07/25 02:24:20;;;;;;;16.13;8.65;;;;;;;14.69;100.00;95376.75;1027038;28;20031;-68
2021/07/25 02:24:51;;;;;;;23.00;9.70;;;;;;;14.69;100.00;95371.47;1022732;29;20030;-68
2021/07/25 02:25:21;;;;;;;14.98;9.00;;;;;;;14.70;100.00;95374.88;1023187;28;20102;-69
2021/07/25 02:25:52;;;;;;;14.55;7.93;;;;;;;14.69;100.00;95368.81;1027168;28;20030;-67
2021/07/25 02:26:22;;;;;;;19.90;8.40;;;;;;;14.61;100.00;95351.03;1027072;28;20507;-68
2021/07/25 02:26:53;;;;;;;18.38;9.13;;;;;;;14.61;100.00;95358.94;1027004;28;20408;-68